sensor_id;sensor_type;location;lat;lon;timestamp;P1;durP1;ratioP1;P2;durP2;ratioP2
56927;SDS011;60850;52.502;13.426;2024-03-02T00:02:01;58.33;;;26.58;;
56927;SDS011;60850;52.502;13.426;2024-03-02T00:04:28;59.67;;;27.13;;
56927;SDS011;60850;52.502;13.426;2024-03-02T00:06:56;60.15;;;27.38;;
56927;SDS011;60850;52.502;13.426;2024-03-02T00:09:26;55.88;;;27.08;;
56927;SDS011;60850;52.502;13.426;2024-03-02T00:11:53;56.35;;;27.63;;
56927;SDS011;60850;52.502;13.426;2024-03-02T00:14:20;56.00;;;26.40;;
56927;SDS011;60850;52.502;13.426;2024-03-02T00:16:51;65.43;;;28.30;;
56927;SDS011;60850;52.502;13.426;2024-03-02T00:19:18;62.00;;;27.23;;
56927;SDS011;60850;52.502;13.426;2024-03-02T00:21:46;61.30;;;27.60;;
56927;SDS011;60850;52.502;13.426;2024-03-02T00:24:17;57.75;;;27.67;;
56927;SDS011;60850;52.502;13.426;2024-03-02T00:26:47;55.30;;;27.40;;
56927;SDS011;60850;52.502;13.426;2024-03-02T00:29:15;60.22;;;27.38;;
56927;SDS011;60850;52.502;13.426;2024-03-02T00:31:44;64.00;;;29.25;;
56927;SDS011;60850;52.502;13.426;2024-03-02T00:34:13;60.35;;;27.98;;
56927;SDS011;60850;52.502;13.426;2024-03-02T00:36:41;59.50;;;28.88;;
56927;SDS011;60850;52.502;13.426;2024-03-02T00:39:08;65.75;;;29.15;;
56927;SDS011;60850;52.502;13.426;2024-03-02T00:41:40;58.75;;;27.75;;
56927;SDS011;60850;52.502;13.426;2024-03-02T00:44:09;61.92;;;28.90;;
56927;SDS011;60850;52.502;13.426;2024-03-02T00:46:39;61.88;;;28.45;;
56927;SDS011;60850;52.502;13.426;2024-03-02T00:49:11;65.13;;;29.67;;
56927;SDS011;60850;52.502;13.426;2024-03-02T00:51:46;60.42;;;30.13;;
56927;SDS011;60850;52.502;13.426;2024-03-02T00:54:14;65.60;;;29.92;;
56927;SDS011;60850;52.502;13.426;2024-03-02T00:56:41;66.70;;;30.85;;
56927;SDS011;60850;52.502;13.426;2024-03-02T00:59:10;68.22;;;29.90;;
56927;SDS011;60850;52.502;13.426;2024-03-02T01:01:37;66.22;;;29.00;;
56927;SDS011;60850;52.502;13.426;2024-03-02T01:04:04;66.20;;;29.13;;
56927;SDS011;60850;52.502;13.426;2024-03-02T01:06:33;59.17;;;30.02;;
56927;SDS011;60850;52.502;13.426;2024-03-02T01:09:01;62.65;;;29.38;;
56927;SDS011;60850;52.502;13.426;2024-03-02T01:11:29;66.75;;;30.10;;
56927;SDS011;60850;52.502;13.426;2024-03-02T01:13:56;66.10;;;30.85;;
56927;SDS011;60850;52.502;13.426;2024-03-02T01:16:23;62.53;;;31.55;;
56927;SDS011;60850;52.502;13.426;2024-03-02T01:18:50;63.70;;;30.48;;
56927;SDS011;60850;52.502;13.426;2024-03-02T01:21:17;58.80;;;29.65;;
56927;SDS011;60850;52.502;13.426;2024-03-02T01:23:46;57.88;;;28.17;;
56927;SDS011;60850;52.502;13.426;2024-03-02T01:26:13;62.63;;;29.75;;
56927;SDS011;60850;52.502;13.426;2024-03-02T01:28:41;64.90;;;30.67;;
56927;SDS011;60850;52.502;13.426;2024-03-02T01:31:08;63.78;;;30.42;;
56927;SDS011;60850;52.502;13.426;2024-03-02T01:33:35;64.43;;;31.73;;
56927;SDS011;60850;52.502;13.426;2024-03-02T01:36:02;62.63;;;29.67;;
56927;SDS011;60850;52.502;13.426;2024-03-02T01:38:29;74.20;;;30.55;;
56927;SDS011;60850;52.502;13.426;2024-03-02T01:40:58;64.72;;;29.35;;
56927;SDS011;60850;52.502;13.426;2024-03-02T01:43:25;64.97;;;29.77;;
56927;SDS011;60850;52.502;13.426;2024-03-02T01:45:53;61.88;;;30.20;;
56927;SDS011;60850;52.502;13.426;2024-03-02T01:48:20;67.65;;;31.40;;
56927;SDS011;60850;52.502;13.426;2024-03-02T01:50:47;62.63;;;29.92;;
56927;SDS011;60850;52.502;13.426;2024-03-02T01:53:14;64.05;;;29.95;;
56927;SDS011;60850;52.502;13.426;2024-03-02T01:55:41;65.80;;;30.33;;
56927;SDS011;60850;52.502;13.426;2024-03-02T01:58:10;64.88;;;32.53;;
56927;SDS011;60850;52.502;13.426;2024-03-02T02:00:37;69.75;;;31.13;;
56927;SDS011;60850;52.502;13.426;2024-03-02T02:03:04;68.25;;;30.98;;
56927;SDS011;60850;52.502;13.426;2024-03-02T02:05:32;64.85;;;30.45;;
56927;SDS011;60850;52.502;13.426;2024-03-02T02:08:00;65.43;;;32.35;;
56927;SDS011;60850;52.502;13.426;2024-03-02T02:10:28;62.45;;;29.80;;
56927;SDS011;60850;52.502;13.426;2024-03-02T02:12:55;63.85;;;31.20;;
56927;SDS011;60850;52.502;13.426;2024-03-02T02:15:24;68.05;;;32.40;;
56927;SDS011;60850;52.502;13.426;2024-03-02T02:17:51;62.67;;;30.10;;
56927;SDS011;60850;52.502;13.426;2024-03-02T02:20:19;64.72;;;30.45;;
56927;SDS011;60850;52.502;13.426;2024-03-02T02:22:57;71.45;;;33.15;;
56927;SDS011;60850;52.502;13.426;2024-03-02T02:25:25;64.28;;;30.05;;
56927;SDS011;60850;52.502;13.426;2024-03-02T02:27:52;65.93;;;30.58;;
56927;SDS011;60850;52.502;13.426;2024-03-02T02:30:20;61.28;;;31.85;;
56927;SDS011;60850;52.502;13.426;2024-03-02T02:32:47;63.75;;;29.63;;
56927;SDS011;60850;52.502;13.426;2024-03-02T02:35:14;65.07;;;30.60;;
56927;SDS011;60850;52.502;13.426;2024-03-02T02:37:41;70.28;;;31.42;;
56927;SDS011;60850;52.502;13.426;2024-03-02T02:40:11;64.07;;;29.60;;
56927;SDS011;60850;52.502;13.426;2024-03-02T02:42:39;61.33;;;30.23;;
56927;SDS011;60850;52.502;13.426;2024-03-02T02:45:06;66.45;;;30.77;;
56927;SDS011;60850;52.502;13.426;2024-03-02T02:47:33;58.47;;;30.63;;
56927;SDS011;60850;52.502;13.426;2024-03-02T02:50:02;65.38;;;29.70;;
56927;SDS011;60850;52.502;13.426;2024-03-02T02:52:32;66.30;;;31.65;;
56927;SDS011;60850;52.502;13.426;2024-03-02T02:55:02;60.22;;;30.63;;
56927;SDS011;60850;52.502;13.426;2024-03-02T02:57:31;67.30;;;31.35;;
56927;SDS011;60850;52.502;13.426;2024-03-02T03:00:01;68.10;;;32.72;;
56927;SDS011;60850;52.502;13.426;2024-03-02T03:02:36;76.15;;;34.45;;
56927;SDS011;60850;52.502;13.426;2024-03-02T03:05:04;64.22;;;30.90;;
56927;SDS011;60850;52.502;13.426;2024-03-02T03:07:32;68.38;;;32.35;;
56927;SDS011;60850;52.502;13.426;2024-03-02T03:10:00;66.97;;;32.05;;
56927;SDS011;60850;52.502;13.426;2024-03-02T03:12:28;65.63;;;31.85;;
56927;SDS011;60850;52.502;13.426;2024-03-02T03:14:58;65.75;;;32.33;;
56927;SDS011;60850;52.502;13.426;2024-03-02T03:17:25;70.38;;;32.13;;
56927;SDS011;60850;52.502;13.426;2024-03-02T03:19:52;66.28;;;31.60;;
56927;SDS011;60850;52.502;13.426;2024-03-02T03:22:20;63.83;;;29.27;;
56927;SDS011;60850;52.502;13.426;2024-03-02T03:24:47;65.10;;;30.23;;
56927;SDS011;60850;52.502;13.426;2024-03-02T03:27:14;68.45;;;32.63;;
56927;SDS011;60850;52.502;13.426;2024-03-02T03:29:41;64.40;;;29.90;;
56927;SDS011;60850;52.502;13.426;2024-03-02T03:32:09;64.60;;;31.27;;
56927;SDS011;60850;52.502;13.426;2024-03-02T03:34:36;67.40;;;31.27;;
56927;SDS011;60850;52.502;13.426;2024-03-02T03:37:03;68.35;;;31.92;;
56927;SDS011;60850;52.502;13.426;2024-03-02T03:39:30;66.30;;;31.08;;
56927;SDS011;60850;52.502;13.426;2024-03-02T03:41:57;70.93;;;31.63;;
56927;SDS011;60850;52.502;13.426;2024-03-02T03:44:24;65.28;;;30.95;;
56927;SDS011;60850;52.502;13.426;2024-03-02T03:46:51;64.72;;;31.23;;
56927;SDS011;60850;52.502;13.426;2024-03-02T03:49:20;65.90;;;30.48;;
56927;SDS011;60850;52.502;13.426;2024-03-02T03:51:47;62.15;;;29.42;;
56927;SDS011;60850;52.502;13.426;2024-03-02T03:54:14;59.45;;;29.50;;
56927;SDS011;60850;52.502;13.426;2024-03-02T03:56:41;63.83;;;28.30;;
56927;SDS011;60850;52.502;13.426;2024-03-02T03:59:08;64.60;;;29.83;;
56927;SDS011;60850;52.502;13.426;2024-03-02T04:01:35;62.83;;;29.45;;
56927;SDS011;60850;52.502;13.426;2024-03-02T04:04:02;58.60;;;27.85;;
56927;SDS011;60850;52.502;13.426;2024-03-02T04:06:31;56.42;;;28.17;;
56927;SDS011;60850;52.502;13.426;2024-03-02T04:08:58;63.65;;;30.02;;
56927;SDS011;60850;52.502;13.426;2024-03-02T04:11:25;61.08;;;29.33;;
56927;SDS011;60850;52.502;13.426;2024-03-02T04:13:52;62.20;;;30.60;;
56927;SDS011;60850;52.502;13.426;2024-03-02T04:16:19;60.13;;;27.65;;
56927;SDS011;60850;52.502;13.426;2024-03-02T04:18:46;59.65;;;28.60;;
56927;SDS011;60850;52.502;13.426;2024-03-02T04:21:13;59.95;;;28.10;;
56927;SDS011;60850;52.502;13.426;2024-03-02T04:23:41;63.83;;;29.30;;
56927;SDS011;60850;52.502;13.426;2024-03-02T04:26:09;66.78;;;28.90;;
56927;SDS011;60850;52.502;13.426;2024-03-02T04:28:36;56.28;;;28.88;;
56927;SDS011;60850;52.502;13.426;2024-03-02T04:31:03;63.25;;;27.92;;
56927;SDS011;60850;52.502;13.426;2024-03-02T04:33:30;57.40;;;28.10;;
56927;SDS011;60850;52.502;13.426;2024-03-02T04:35:57;54.15;;;27.65;;
56927;SDS011;60850;52.502;13.426;2024-03-02T04:38:24;56.00;;;27.23;;
56927;SDS011;60850;52.502;13.426;2024-03-02T04:40:52;54.85;;;26.13;;
56927;SDS011;60850;52.502;13.426;2024-03-02T04:43:19;54.97;;;26.77;;
56927;SDS011;60850;52.502;13.426;2024-03-02T04:45:46;52.65;;;27.42;;
56927;SDS011;60850;52.502;13.426;2024-03-02T04:48:13;56.15;;;27.90;;
56927;SDS011;60850;52.502;13.426;2024-03-02T04:50:40;57.00;;;27.75;;
56927;SDS011;60850;52.502;13.426;2024-03-02T04:53:07;54.08;;;26.27;;
56927;SDS011;60850;52.502;13.426;2024-03-02T04:55:34;53.15;;;26.50;;
56927;SDS011;60850;52.502;13.426;2024-03-02T04:58:28;54.80;;;26.95;;
56927;SDS011;60850;52.502;13.426;2024-03-02T05:00:56;55.63;;;26.50;;
56927;SDS011;60850;52.502;13.426;2024-03-02T05:03:23;50.45;;;25.92;;
56927;SDS011;60850;52.502;13.426;2024-03-02T05:05:50;49.15;;;25.42;;
56927;SDS011;60850;52.502;13.426;2024-03-02T05:08:17;51.47;;;25.45;;
56927;SDS011;60850;52.502;13.426;2024-03-02T05:10:44;52.45;;;26.38;;
56927;SDS011;60850;52.502;13.426;2024-03-02T05:13:11;48.58;;;24.65;;
56927;SDS011;60850;52.502;13.426;2024-03-02T05:15:38;51.63;;;23.83;;
56927;SDS011;60850;52.502;13.426;2024-03-02T05:18:06;56.45;;;25.50;;
56927;SDS011;60850;52.502;13.426;2024-03-02T05:20:33;55.03;;;26.55;;
56927;SDS011;60850;52.502;13.426;2024-03-02T05:23:00;50.88;;;25.83;;
56927;SDS011;60850;52.502;13.426;2024-03-02T05:25:27;45.80;;;24.42;;
56927;SDS011;60850;52.502;13.426;2024-03-02T05:27:54;50.70;;;25.20;;
56927;SDS011;60850;52.502;13.426;2024-03-02T05:30:21;51.60;;;25.77;;
56927;SDS011;60850;52.502;13.426;2024-03-02T05:32:49;47.85;;;24.55;;
56927;SDS011;60850;52.502;13.426;2024-03-02T05:35:16;53.22;;;26.08;;
56927;SDS011;60850;52.502;13.426;2024-03-02T05:37:43;47.63;;;24.88;;
56927;SDS011;60850;52.502;13.426;2024-03-02T05:40:11;57.80;;;26.85;;
56927;SDS011;60850;52.502;13.426;2024-03-02T05:42:38;49.85;;;25.88;;
56927;SDS011;60850;52.502;13.426;2024-03-02T05:45:07;54.10;;;26.30;;
56927;SDS011;60850;52.502;13.426;2024-03-02T05:47:34;50.50;;;26.27;;
56927;SDS011;60850;52.502;13.426;2024-03-02T05:50:03;59.60;;;26.60;;
56927;SDS011;60850;52.502;13.426;2024-03-02T05:52:32;57.60;;;28.15;;
56927;SDS011;60850;52.502;13.426;2024-03-02T05:54:59;63.92;;;28.55;;
56927;SDS011;60850;52.502;13.426;2024-03-02T05:57:26;58.67;;;28.95;;
56927;SDS011;60850;52.502;13.426;2024-03-02T06:00:11;59.63;;;27.15;;
56927;SDS011;60850;52.502;13.426;2024-03-02T06:02:41;55.67;;;28.38;;
56927;SDS011;60850;52.502;13.426;2024-03-02T06:05:10;58.22;;;28.02;;
56927;SDS011;60850;52.502;13.426;2024-03-02T06:07:37;57.70;;;28.35;;
56927;SDS011;60850;52.502;13.426;2024-03-02T06:10:05;56.90;;;27.30;;
56927;SDS011;60850;52.502;13.426;2024-03-02T06:12:34;59.70;;;27.58;;
56927;SDS011;60850;52.502;13.426;2024-03-02T06:15:01;59.13;;;27.40;;
56927;SDS011;60850;52.502;13.426;2024-03-02T06:17:29;60.60;;;27.45;;
56927;SDS011;60850;52.502;13.426;2024-03-02T06:19:56;59.67;;;28.25;;
56927;SDS011;60850;52.502;13.426;2024-03-02T06:22:24;60.63;;;27.90;;
56927;SDS011;60850;52.502;13.426;2024-03-02T06:24:51;58.75;;;27.70;;
56927;SDS011;60850;52.502;13.426;2024-03-02T06:27:18;64.78;;;29.33;;
56927;SDS011;60850;52.502;13.426;2024-03-02T06:29:45;64.47;;;29.20;;
56927;SDS011;60850;52.502;13.426;2024-03-02T06:32:13;66.28;;;30.02;;
56927;SDS011;60850;52.502;13.426;2024-03-02T06:34:40;60.35;;;29.08;;
56927;SDS011;60850;52.502;13.426;2024-03-02T06:37:07;62.17;;;28.38;;
56927;SDS011;60850;52.502;13.426;2024-03-02T06:39:36;63.50;;;28.40;;
56927;SDS011;60850;52.502;13.426;2024-03-02T06:42:03;58.83;;;27.42;;
56927;SDS011;60850;52.502;13.426;2024-03-02T06:44:30;62.40;;;28.73;;
56927;SDS011;60850;52.502;13.426;2024-03-02T06:46:57;60.10;;;27.85;;
56927;SDS011;60850;52.502;13.426;2024-03-02T06:49:24;58.15;;;27.65;;
56927;SDS011;60850;52.502;13.426;2024-03-02T06:51:51;60.70;;;27.50;;
56927;SDS011;60850;52.502;13.426;2024-03-02T06:54:19;55.85;;;28.10;;
56927;SDS011;60850;52.502;13.426;2024-03-02T06:56:47;54.45;;;27.63;;
56927;SDS011;60850;52.502;13.426;2024-03-02T06:59:14;62.22;;;27.65;;
56927;SDS011;60850;52.502;13.426;2024-03-02T07:01:45;60.35;;;28.55;;
56927;SDS011;60850;52.502;13.426;2024-03-02T07:04:13;69.50;;;30.00;;
56927;SDS011;60850;52.502;13.426;2024-03-02T07:06:40;65.55;;;30.67;;
56927;SDS011;60850;52.502;13.426;2024-03-02T07:09:07;63.80;;;30.20;;
56927;SDS011;60850;52.502;13.426;2024-03-02T07:11:36;68.55;;;31.63;;
56927;SDS011;60850;52.502;13.426;2024-03-02T07:14:04;63.95;;;29.58;;
56927;SDS011;60850;52.502;13.426;2024-03-02T07:16:33;67.97;;;29.08;;
56927;SDS011;60850;52.502;13.426;2024-03-02T07:19:01;63.85;;;29.92;;
56927;SDS011;60850;52.502;13.426;2024-03-02T07:21:28;68.05;;;31.85;;
56927;SDS011;60850;52.502;13.426;2024-03-02T07:23:55;64.07;;;28.48;;
56927;SDS011;60850;52.502;13.426;2024-03-02T07:26:22;70.43;;;30.83;;
56927;SDS011;60850;52.502;13.426;2024-03-02T07:28:49;60.90;;;29.95;;
56927;SDS011;60850;52.502;13.426;2024-03-02T07:31:18;63.50;;;28.38;;
56927;SDS011;60850;52.502;13.426;2024-03-02T07:33:45;62.22;;;29.60;;
56927;SDS011;60850;52.502;13.426;2024-03-02T07:36:12;64.15;;;29.58;;
56927;SDS011;60850;52.502;13.426;2024-03-02T07:38:40;60.40;;;26.92;;
56927;SDS011;60850;52.502;13.426;2024-03-02T07:41:07;63.60;;;29.60;;
56927;SDS011;60850;52.502;13.426;2024-03-02T07:43:36;59.10;;;26.58;;
56927;SDS011;60850;52.502;13.426;2024-03-02T07:46:03;59.30;;;28.45;;
56927;SDS011;60850;52.502;13.426;2024-03-02T07:48:32;62.63;;;28.00;;
56927;SDS011;60850;52.502;13.426;2024-03-02T07:50:59;57.13;;;26.83;;
56927;SDS011;60850;52.502;13.426;2024-03-02T07:53:28;60.00;;;28.05;;
56927;SDS011;60850;52.502;13.426;2024-03-02T07:55:55;59.22;;;28.02;;
56927;SDS011;60850;52.502;13.426;2024-03-02T07:58:27;59.95;;;27.60;;
56927;SDS011;60850;52.502;13.426;2024-03-02T08:00:55;59.63;;;27.95;;
56927;SDS011;60850;52.502;13.426;2024-03-02T08:03:23;58.28;;;27.70;;
56927;SDS011;60850;52.502;13.426;2024-03-02T08:05:51;55.35;;;27.17;;
56927;SDS011;60850;52.502;13.426;2024-03-02T08:08:18;56.25;;;25.80;;
56927;SDS011;60850;52.502;13.426;2024-03-02T08:10:45;55.78;;;26.25;;
56927;SDS011;60850;52.502;13.426;2024-03-02T08:13:12;56.58;;;25.05;;
56927;SDS011;60850;52.502;13.426;2024-03-02T08:15:40;62.72;;;28.40;;
56927;SDS011;60850;52.502;13.426;2024-03-02T08:18:07;56.17;;;27.00;;
56927;SDS011;60850;52.502;13.426;2024-03-02T08:20:34;63.83;;;28.67;;
56927;SDS011;60850;52.502;13.426;2024-03-02T08:23:03;59.25;;;27.75;;
56927;SDS011;60850;52.502;13.426;2024-03-02T08:25:30;66.68;;;29.73;;
56927;SDS011;60850;52.502;13.426;2024-03-02T08:27:57;57.65;;;27.20;;
56927;SDS011;60850;52.502;13.426;2024-03-02T08:30:24;57.42;;;26.60;;
56927;SDS011;60850;52.502;13.426;2024-03-02T08:32:51;55.38;;;26.05;;
56927;SDS011;60850;52.502;13.426;2024-03-02T08:35:18;59.95;;;26.75;;
56927;SDS011;60850;52.502;13.426;2024-03-02T08:37:47;52.97;;;25.58;;
56927;SDS011;60850;52.502;13.426;2024-03-02T08:40:16;55.15;;;25.27;;
56927;SDS011;60850;52.502;13.426;2024-03-02T08:42:43;47.20;;;23.02;;
56927;SDS011;60850;52.502;13.426;2024-03-02T08:45:10;52.50;;;25.63;;
56927;SDS011;60850;52.502;13.426;2024-03-02T08:47:39;53.85;;;25.15;;
56927;SDS011;60850;52.502;13.426;2024-03-02T08:50:07;50.80;;;24.45;;
56927;SDS011;60850;52.502;13.426;2024-03-02T08:52:35;53.10;;;26.48;;
56927;SDS011;60850;52.502;13.426;2024-03-02T08:55:02;53.25;;;26.33;;
56927;SDS011;60850;52.502;13.426;2024-03-02T08:57:31;51.92;;;23.77;;
56927;SDS011;60850;52.502;13.426;2024-03-02T08:59:58;51.35;;;24.83;;
56927;SDS011;60850;52.502;13.426;2024-03-02T09:02:25;50.95;;;25.20;;
56927;SDS011;60850;52.502;13.426;2024-03-02T09:04:52;55.42;;;26.65;;
56927;SDS011;60850;52.502;13.426;2024-03-02T09:07:19;59.53;;;25.35;;
56927;SDS011;60850;52.502;13.426;2024-03-02T09:09:46;59.95;;;27.38;;
56927;SDS011;60850;52.502;13.426;2024-03-02T09:12:13;54.45;;;26.65;;
56927;SDS011;60850;52.502;13.426;2024-03-02T09:14:42;56.47;;;24.65;;
56927;SDS011;60850;52.502;13.426;2024-03-02T09:17:09;56.85;;;26.35;;
56927;SDS011;60850;52.502;13.426;2024-03-02T09:19:37;67.88;;;28.20;;
56927;SDS011;60850;52.502;13.426;2024-03-02T09:22:05;61.90;;;27.95;;
56927;SDS011;60850;52.502;13.426;2024-03-02T09:24:32;51.50;;;24.63;;
56927;SDS011;60850;52.502;13.426;2024-03-02T09:26:59;55.85;;;26.20;;
56927;SDS011;60850;52.502;13.426;2024-03-02T09:29:26;51.05;;;25.55;;
56927;SDS011;60850;52.502;13.426;2024-03-02T09:31:55;53.15;;;25.63;;
56927;SDS011;60850;52.502;13.426;2024-03-02T09:34:22;54.13;;;25.38;;
56927;SDS011;60850;52.502;13.426;2024-03-02T09:36:50;52.78;;;24.27;;
56927;SDS011;60850;52.502;13.426;2024-03-02T09:39:17;52.22;;;26.77;;
56927;SDS011;60850;52.502;13.426;2024-03-02T09:41:44;51.65;;;24.90;;
56927;SDS011;60850;52.502;13.426;2024-03-02T09:44:11;50.22;;;26.65;;
56927;SDS011;60850;52.502;13.426;2024-03-02T09:46:39;54.60;;;25.85;;
56927;SDS011;60850;52.502;13.426;2024-03-02T09:49:10;48.10;;;23.88;;
56927;SDS011;60850;52.502;13.426;2024-03-02T09:51:38;50.28;;;23.80;;
56927;SDS011;60850;52.502;13.426;2024-03-02T09:54:06;48.63;;;22.73;;
56927;SDS011;60850;52.502;13.426;2024-03-02T09:56:34;48.35;;;22.38;;
56927;SDS011;60850;52.502;13.426;2024-03-02T09:59:01;47.28;;;23.33;;
56927;SDS011;60850;52.502;13.426;2024-03-02T10:01:28;46.50;;;24.13;;
56927;SDS011;60850;52.502;13.426;2024-03-02T10:03:55;44.38;;;22.77;;
56927;SDS011;60850;52.502;13.426;2024-03-02T10:06:27;52.85;;;24.20;;
56927;SDS011;60850;52.502;13.426;2024-03-02T10:08:55;49.90;;;23.67;;
56927;SDS011;60850;52.502;13.426;2024-03-02T10:11:26;46.65;;;23.60;;
56927;SDS011;60850;52.502;13.426;2024-03-02T10:14:03;44.58;;;23.73;;
56927;SDS011;60850;52.502;13.426;2024-03-02T10:16:34;48.65;;;23.75;;
56927;SDS011;60850;52.502;13.426;2024-03-02T10:19:17;44.75;;;21.40;;
56927;SDS011;60850;52.502;13.426;2024-03-02T10:21:47;37.58;;;20.60;;
56927;SDS011;60850;52.502;13.426;2024-03-02T10:24:16;45.83;;;21.67;;
56927;SDS011;60850;52.502;13.426;2024-03-02T10:26:43;37.40;;;18.60;;
56927;SDS011;60850;52.502;13.426;2024-03-02T10:29:10;37.65;;;20.00;;
56927;SDS011;60850;52.502;13.426;2024-03-02T10:31:38;34.22;;;19.35;;
56927;SDS011;60850;52.502;13.426;2024-03-02T10:34:07;36.40;;;18.75;;
56927;SDS011;60850;52.502;13.426;2024-03-02T10:36:36;37.08;;;18.90;;
56927;SDS011;60850;52.502;13.426;2024-03-02T10:39:05;34.20;;;18.17;;
56927;SDS011;60850;52.502;13.426;2024-03-02T10:41:34;36.85;;;18.02;;
56927;SDS011;60850;52.502;13.426;2024-03-02T10:44:02;36.25;;;18.20;;
56927;SDS011;60850;52.502;13.426;2024-03-02T10:46:30;39.05;;;18.80;;
56927;SDS011;60850;52.502;13.426;2024-03-02T10:48:58;33.25;;;17.08;;
56927;SDS011;60850;52.502;13.426;2024-03-02T10:51:26;31.73;;;17.38;;
56927;SDS011;60850;52.502;13.426;2024-03-02T10:53:57;34.38;;;17.88;;
56927;SDS011;60850;52.502;13.426;2024-03-02T10:56:29;31.85;;;17.92;;
56927;SDS011;60850;52.502;13.426;2024-03-02T10:59:00;34.72;;;17.23;;
56927;SDS011;60850;52.502;13.426;2024-03-02T11:01:29;33.08;;;17.40;;
56927;SDS011;60850;52.502;13.426;2024-03-02T11:03:59;29.38;;;15.27;;
56927;SDS011;60850;52.502;13.426;2024-03-02T11:06:29;32.45;;;16.55;;
56927;SDS011;60850;52.502;13.426;2024-03-02T11:11:40;28.77;;;14.88;;
56927;SDS011;60850;52.502;13.426;2024-03-02T11:14:11;27.45;;;15.57;;
56927;SDS011;60850;52.502;13.426;2024-03-02T11:16:43;30.13;;;15.02;;
56927;SDS011;60850;52.502;13.426;2024-03-02T11:19:11;30.00;;;15.80;;
56927;SDS011;60850;52.502;13.426;2024-03-02T11:21:42;32.45;;;15.30;;
56927;SDS011;60850;52.502;13.426;2024-03-02T11:27:01;30.15;;;16.35;;
56927;SDS011;60850;52.502;13.426;2024-03-02T11:29:45;33.63;;;15.93;;
56927;SDS011;60850;52.502;13.426;2024-03-02T11:32:13;31.35;;;16.00;;
56927;SDS011;60850;52.502;13.426;2024-03-02T11:34:49;32.92;;;16.38;;
56927;SDS011;60850;52.502;13.426;2024-03-02T11:37:17;31.95;;;16.33;;
56927;SDS011;60850;52.502;13.426;2024-03-02T11:39:46;31.77;;;15.73;;
56927;SDS011;60850;52.502;13.426;2024-03-02T11:42:18;30.17;;;15.15;;
56927;SDS011;60850;52.502;13.426;2024-03-02T11:44:45;33.15;;;16.10;;
56927;SDS011;60850;52.502;13.426;2024-03-02T11:47:14;29.27;;;16.10;;
56927;SDS011;60850;52.502;13.426;2024-03-02T11:49:43;32.55;;;15.85;;
56927;SDS011;60850;52.502;13.426;2024-03-02T11:52:12;30.85;;;15.15;;
56927;SDS011;60850;52.502;13.426;2024-03-02T11:54:40;29.63;;;15.68;;
56927;SDS011;60850;52.502;13.426;2024-03-02T11:57:12;28.48;;;14.07;;
56927;SDS011;60850;52.502;13.426;2024-03-02T11:59:41;32.00;;;15.02;;
56927;SDS011;60850;52.502;13.426;2024-03-02T12:02:13;31.20;;;15.52;;
56927;SDS011;60850;52.502;13.426;2024-03-02T12:04:42;26.90;;;15.10;;
56927;SDS011;60850;52.502;13.426;2024-03-02T12:07:10;32.10;;;15.30;;
56927;SDS011;60850;52.502;13.426;2024-03-02T12:09:38;32.45;;;16.52;;
56927;SDS011;60850;52.502;13.426;2024-03-02T12:12:05;30.95;;;16.08;;
56927;SDS011;60850;52.502;13.426;2024-03-02T12:14:34;30.40;;;16.60;;
56927;SDS011;60850;52.502;13.426;2024-03-02T12:17:04;29.55;;;14.93;;
56927;SDS011;60850;52.502;13.426;2024-03-02T12:19:32;28.98;;;14.70;;
56927;SDS011;60850;52.502;13.426;2024-03-02T12:21:59;32.58;;;16.20;;
56927;SDS011;60850;52.502;13.426;2024-03-02T12:24:27;38.40;;;18.98;;
56927;SDS011;60850;52.502;13.426;2024-03-02T12:26:56;35.50;;;18.52;;
56927;SDS011;60850;52.502;13.426;2024-03-02T12:29:24;31.25;;;16.38;;
56927;SDS011;60850;52.502;13.426;2024-03-02T12:31:51;31.95;;;15.85;;
56927;SDS011;60850;52.502;13.426;2024-03-02T12:34:21;26.83;;;15.30;;
56927;SDS011;60850;52.502;13.426;2024-03-02T12:36:48;29.52;;;14.80;;
56927;SDS011;60850;52.502;13.426;2024-03-02T12:39:18;34.33;;;16.70;;
56927;SDS011;60850;52.502;13.426;2024-03-02T12:41:48;31.73;;;15.68;;
56927;SDS011;60850;52.502;13.426;2024-03-02T12:44:17;33.25;;;15.50;;
56927;SDS011;60850;52.502;13.426;2024-03-02T12:46:44;28.00;;;15.38;;
56927;SDS011;60850;52.502;13.426;2024-03-02T12:49:13;25.05;;;14.02;;
56927;SDS011;60850;52.502;13.426;2024-03-02T12:51:43;27.50;;;14.90;;
56927;SDS011;60850;52.502;13.426;2024-03-02T12:54:12;27.27;;;14.38;;
56927;SDS011;60850;52.502;13.426;2024-03-02T12:56:41;22.95;;;13.30;;
56927;SDS011;60850;52.502;13.426;2024-03-02T12:59:16;25.75;;;14.05;;
56927;SDS011;60850;52.502;13.426;2024-03-02T13:01:49;30.67;;;14.57;;
56927;SDS011;60850;52.502;13.426;2024-03-02T13:04:17;29.73;;;14.52;;
56927;SDS011;60850;52.502;13.426;2024-03-02T13:06:52;23.67;;;14.00;;
56927;SDS011;60850;52.502;13.426;2024-03-02T13:09:23;24.85;;;13.48;;
56927;SDS011;60850;52.502;13.426;2024-03-02T13:11:50;27.88;;;13.75;;
56927;SDS011;60850;52.502;13.426;2024-03-02T13:14:17;23.90;;;12.23;;
56927;SDS011;60850;52.502;13.426;2024-03-02T13:16:44;23.92;;;12.63;;
56927;SDS011;60850;52.502;13.426;2024-03-02T13:19:14;23.13;;;13.48;;
56927;SDS011;60850;52.502;13.426;2024-03-02T13:21:41;26.23;;;12.90;;
56927;SDS011;60850;52.502;13.426;2024-03-02T13:24:09;23.98;;;13.13;;
56927;SDS011;60850;52.502;13.426;2024-03-02T13:26:37;29.70;;;14.50;;
56927;SDS011;60850;52.502;13.426;2024-03-02T13:29:05;27.30;;;14.57;;
56927;SDS011;60850;52.502;13.426;2024-03-02T13:31:33;26.05;;;14.82;;
56927;SDS011;60850;52.502;13.426;2024-03-02T13:34:00;32.58;;;15.50;;
56927;SDS011;60850;52.502;13.426;2024-03-02T13:36:27;22.60;;;11.85;;
56927;SDS011;60850;52.502;13.426;2024-03-02T13:38:54;20.02;;;11.00;;
56927;SDS011;60850;52.502;13.426;2024-03-02T13:41:25;21.92;;;11.65;;
56927;SDS011;60850;52.502;13.426;2024-03-02T13:43:52;22.00;;;11.88;;
56927;SDS011;60850;52.502;13.426;2024-03-02T13:46:19;21.10;;;12.63;;
56927;SDS011;60850;52.502;13.426;2024-03-02T13:48:46;22.35;;;12.70;;
56927;SDS011;60850;52.502;13.426;2024-03-02T13:51:13;25.98;;;12.55;;
56927;SDS011;60850;52.502;13.426;2024-03-02T13:53:40;24.83;;;12.73;;
56927;SDS011;60850;52.502;13.426;2024-03-02T13:56:07;23.27;;;11.73;;
56927;SDS011;60850;52.502;13.426;2024-03-02T13:58:36;23.63;;;11.55;;
56927;SDS011;60850;52.502;13.426;2024-03-02T14:01:03;21.23;;;12.20;;
56927;SDS011;60850;52.502;13.426;2024-03-02T14:03:31;21.77;;;11.18;;
56927;SDS011;60850;52.502;13.426;2024-03-02T14:05:58;23.48;;;11.52;;
56927;SDS011;60850;52.502;13.426;2024-03-02T14:08:25;22.67;;;11.95;;
56927;SDS011;60850;52.502;13.426;2024-03-02T14:10:52;27.17;;;13.50;;
56927;SDS011;60850;52.502;13.426;2024-03-02T14:13:20;34.75;;;16.08;;
56927;SDS011;60850;52.502;13.426;2024-03-02T14:15:49;25.65;;;12.68;;
56927;SDS011;60850;52.502;13.426;2024-03-02T14:18:16;20.35;;;10.65;;
56927;SDS011;60850;52.502;13.426;2024-03-02T14:20:44;17.70;;;9.13;;